sensor_id;sensor_type;location;lat;lon;timestamp;P1;durP1;ratioP1;P2;durP2;ratioP2
72547;SDS011;60570;50.848;6.776;2023-04-15T00:00:46;1053.00;;;972.60;;
72547;SDS011;60570;50.848;6.776;2023-04-15T00:01:47;1053.43;;;973.50;;
72547;SDS011;60570;50.848;6.776;2023-04-15T00:02:48;1052.55;;;972.50;;
72547;SDS011;60570;50.848;6.776;2023-04-15T00:03:51;1053.27;;;973.23;;
72547;SDS011;60570;50.848;6.776;2023-04-15T00:04:53;1049.13;;;969.47;;
72547;SDS011;60570;50.848;6.776;2023-04-15T00:05:54;1049.00;;;969.17;;
72547;SDS011;60570;50.848;6.776;2023-04-15T00:06:56;1050.75;;;970.78;;
72547;SDS011;60570;50.848;6.776;2023-04-15T00:07:56;1052.47;;;972.50;;
72547;SDS011;60570;50.848;6.776;2023-04-15T00:08:59;1053.00;;;972.85;;
72547;SDS011;60570;50.848;6.776;2023-04-15T00:09:59;1049.30;;;969.57;;
72547;SDS011;60570;50.848;6.776;2023-04-15T00:11:01;1055.75;;;975.38;;
72547;SDS011;60570;50.848;6.776;2023-04-15T00:12:04;1054.57;;;974.25;;
72547;SDS011;60570;50.848;6.776;2023-04-15T00:13:07;1050.22;;;970.22;;
72547;SDS011;60570;50.848;6.776;2023-04-15T00:14:08;1055.50;;;974.83;;
72547;SDS011;60570;50.848;6.776;2023-04-15T00:15:10;1050.55;;;970.78;;
72547;SDS011;60570;50.848;6.776;2023-04-15T00:17:13;1050.57;;;971.80;;
72547;SDS011;60570;50.848;6.776;2023-04-15T00:18:14;1050.50;;;971.30;;
72547;SDS011;60570;50.848;6.776;2023-04-15T00:20:18;1049.50;;;971.30;;
72547;SDS011;60570;50.848;6.776;2023-04-15T00:21:20;1050.93;;;971.97;;
72547;SDS011;60570;50.848;6.776;2023-04-15T00:22:21;1049.60;;;970.57;;
72547;SDS011;60570;50.848;6.776;2023-04-15T00:23:22;1050.68;;;971.47;;
72547;SDS011;60570;50.848;6.776;2023-04-15T00:24:23;1049.17;;;969.83;;
72547;SDS011;60570;50.848;6.776;2023-04-15T00:25:25;1052.45;;;972.40;;
72547;SDS011;60570;50.848;6.776;2023-04-15T00:26:25;1052.77;;;972.87;;
72547;SDS011;60570;50.848;6.776;2023-04-15T00:27:27;1054.50;;;974.25;;
72547;SDS011;60570;50.848;6.776;2023-04-15T00:28:28;1051.68;;;971.75;;
72547;SDS011;60570;50.848;6.776;2023-04-15T00:29:31;1050.13;;;970.40;;
72547;SDS011;60570;50.848;6.776;2023-04-15T00:30:32;1053.28;;;973.17;;
72547;SDS011;60570;50.848;6.776;2023-04-15T00:32:34;1047.23;;;969.03;;
72547;SDS011;60570;50.848;6.776;2023-04-15T00:33:36;1050.40;;;971.22;;
72547;SDS011;60570;50.848;6.776;2023-04-15T00:34:38;1050.97;;;971.60;;
72547;SDS011;60570;50.848;6.776;2023-04-15T00:35:40;1053.88;;;974.10;;
72547;SDS011;60570;50.848;6.776;2023-04-15T00:36:41;1056.90;;;977.30;;
72547;SDS011;60570;50.848;6.776;2023-04-15T00:37:43;1055.22;;;976.17;;
72547;SDS011;60570;50.848;6.776;2023-04-15T00:38:44;1050.87;;;971.20;;
72547;SDS011;60570;50.848;6.776;2023-04-15T00:39:46;1056.18;;;976.10;;
72547;SDS011;60570;50.848;6.776;2023-04-15T00:40:47;1052.93;;;973.30;;
72547;SDS011;60570;50.848;6.776;2023-04-15T00:41:48;1051.93;;;972.13;;
72547;SDS011;60570;50.848;6.776;2023-04-15T00:42:50;1054.50;;;974.80;;
72547;SDS011;60570;50.848;6.776;2023-04-15T00:43:51;1052.20;;;972.58;;
72547;SDS011;60570;50.848;6.776;2023-04-15T00:44:52;1052.10;;;972.47;;
72547;SDS011;60570;50.848;6.776;2023-04-15T00:45:54;1051.03;;;971.35;;
72547;SDS011;60570;50.848;6.776;2023-04-15T00:46:59;1055.25;;;975.20;;
72547;SDS011;60570;50.848;6.776;2023-04-15T00:48:01;1054.75;;;974.60;;
72547;SDS011;60570;50.848;6.776;2023-04-15T00:49:02;1053.95;;;974.08;;
72547;SDS011;60570;50.848;6.776;2023-04-15T00:50:07;1053.85;;;973.97;;
72547;SDS011;60570;50.848;6.776;2023-04-15T00:51:08;1056.40;;;976.22;;
72547;SDS011;60570;50.848;6.776;2023-04-15T00:52:10;1055.13;;;975.03;;
72547;SDS011;60570;50.848;6.776;2023-04-15T00:53:11;1051.90;;;972.23;;
72547;SDS011;60570;50.848;6.776;2023-04-15T00:54:12;1051.38;;;971.38;;
72547;SDS011;60570;50.848;6.776;2023-04-15T00:55:14;1050.17;;;970.67;;
72547;SDS011;60570;50.848;6.776;2023-04-15T00:56:16;1056.22;;;975.83;;
72547;SDS011;60570;50.848;6.776;2023-04-15T00:57:20;1052.35;;;972.60;;
72547;SDS011;60570;50.848;6.776;2023-04-15T00:58:22;1052.80;;;973.05;;
72547;SDS011;60570;50.848;6.776;2023-04-15T00:59:23;1053.10;;;973.20;;
72547;SDS011;60570;50.848;6.776;2023-04-15T01:00:26;1054.90;;;974.85;;
72547;SDS011;60570;50.848;6.776;2023-04-15T01:01:27;1050.27;;;970.73;;
72547;SDS011;60570;50.848;6.776;2023-04-15T01:02:29;1051.20;;;971.40;;
72547;SDS011;60570;50.848;6.776;2023-04-15T01:03:31;1054.28;;;974.20;;
72547;SDS011;60570;50.848;6.776;2023-04-15T01:04:33;1053.05;;;973.15;;
72547;SDS011;60570;50.848;6.776;2023-04-15T01:05:37;1056.60;;;977.25;;
72547;SDS011;60570;50.848;6.776;2023-04-15T01:06:39;1052.95;;;973.33;;
72547;SDS011;60570;50.848;6.776;2023-04-15T01:07:40;1052.10;;;972.13;;
72547;SDS011;60570;50.848;6.776;2023-04-15T01:08:41;1056.00;;;976.08;;
72547;SDS011;60570;50.848;6.776;2023-04-15T01:09:43;1050.32;;;971.03;;
72547;SDS011;60570;50.848;6.776;2023-04-15T01:10:45;1050.68;;;971.00;;
72547;SDS011;60570;50.848;6.776;2023-04-15T01:11:45;1053.73;;;973.87;;
72547;SDS011;60570;50.848;6.776;2023-04-15T01:12:47;1055.18;;;975.05;;
72547;SDS011;60570;50.848;6.776;2023-04-15T01:13:48;1054.53;;;974.77;;
72547;SDS011;60570;50.848;6.776;2023-04-15T01:14:51;1055.28;;;975.17;;
72547;SDS011;60570;50.848;6.776;2023-04-15T01:15:52;1055.10;;;974.88;;
72547;SDS011;60570;50.848;6.776;2023-04-15T01:16:56;1056.32;;;976.30;;
72547;SDS011;60570;50.848;6.776;2023-04-15T01:17:57;1053.67;;;973.97;;
72547;SDS011;60570;50.848;6.776;2023-04-15T01:19:00;1050.28;;;970.42;;
72547;SDS011;60570;50.848;6.776;2023-04-15T01:20:01;1054.38;;;974.28;;
72547;SDS011;60570;50.848;6.776;2023-04-15T01:21:05;1049.57;;;970.05;;
72547;SDS011;60570;50.848;6.776;2023-04-15T01:22:07;1055.10;;;975.05;;
72547;SDS011;60570;50.848;6.776;2023-04-15T01:23:09;1051.03;;;971.20;;
72547;SDS011;60570;50.848;6.776;2023-04-15T01:24:10;1053.77;;;974.73;;
72547;SDS011;60570;50.848;6.776;2023-04-15T01:25:15;1051.13;;;971.55;;
72547;SDS011;60570;50.848;6.776;2023-04-15T01:26:19;1055.90;;;977.03;;
72547;SDS011;60570;50.848;6.776;2023-04-15T01:27:23;1053.05;;;973.35;;
72547;SDS011;60570;50.848;6.776;2023-04-15T01:28:24;1048.57;;;969.27;;
72547;SDS011;60570;50.848;6.776;2023-04-15T01:30:27;1046.67;;;968.73;;
72547;SDS011;60570;50.848;6.776;2023-04-15T01:31:29;1054.38;;;975.17;;
72547;SDS011;60570;50.848;6.776;2023-04-15T01:32:29;1053.07;;;973.93;;
72547;SDS011;60570;50.848;6.776;2023-04-15T01:33:31;1052.72;;;974.33;;
72547;SDS011;60570;50.848;6.776;2023-04-15T01:34:32;1048.70;;;969.63;;
72547;SDS011;60570;50.848;6.776;2023-04-15T01:35:33;1051.45;;;971.85;;
72547;SDS011;60570;50.848;6.776;2023-04-15T01:36:34;1050.67;;;971.13;;
72547;SDS011;60570;50.848;6.776;2023-04-15T01:37:36;1054.50;;;974.45;;
72547;SDS011;60570;50.848;6.776;2023-04-15T01:38:37;1054.05;;;974.30;;
72547;SDS011;60570;50.848;6.776;2023-04-15T01:39:39;1053.00;;;973.13;;
72547;SDS011;60570;50.848;6.776;2023-04-15T01:40:40;1050.37;;;970.80;;
72547;SDS011;60570;50.848;6.776;2023-04-15T01:41:43;1048.80;;;969.45;;
72547;SDS011;60570;50.848;6.776;2023-04-15T01:42:44;1051.88;;;972.63;;
72547;SDS011;60570;50.848;6.776;2023-04-15T01:43:45;1052.53;;;972.92;;
72547;SDS011;60570;50.848;6.776;2023-04-15T01:44:46;1053.00;;;974.50;;
72547;SDS011;60570;50.848;6.776;2023-04-15T01:45:48;1050.75;;;971.20;;
72547;SDS011;60570;50.848;6.776;2023-04-15T01:46:48;1049.30;;;970.13;;
72547;SDS011;60570;50.848;6.776;2023-04-15T01:47:50;1050.85;;;971.45;;
72547;SDS011;60570;50.848;6.776;2023-04-15T01:48:51;1053.20;;;973.57;;
72547;SDS011;60570;50.848;6.776;2023-04-15T01:49:52;1051.15;;;971.83;;
72547;SDS011;60570;50.848;6.776;2023-04-15T01:50:54;1050.67;;;971.47;;
72547;SDS011;60570;50.848;6.776;2023-04-15T01:51:57;1052.75;;;973.10;;
72547;SDS011;60570;50.848;6.776;2023-04-15T01:52:57;1052.03;;;972.63;;
72547;SDS011;60570;50.848;6.776;2023-04-15T01:53:59;1056.50;;;976.67;;
72547;SDS011;60570;50.848;6.776;2023-04-15T01:55:00;1057.43;;;978.20;;
72547;SDS011;60570;50.848;6.776;2023-04-15T01:56:02;1048.55;;;969.63;;
72547;SDS011;60570;50.848;6.776;2023-04-15T01:57:04;1054.38;;;974.58;;
72547;SDS011;60570;50.848;6.776;2023-04-15T01:58:06;1053.07;;;973.72;;
72547;SDS011;60570;50.848;6.776;2023-04-15T01:59:07;1052.77;;;973.47;;
72547;SDS011;60570;50.848;6.776;2023-04-15T02:00:09;1053.30;;;974.05;;
72547;SDS011;60570;50.848;6.776;2023-04-15T02:01:10;1053.65;;;975.28;;
72547;SDS011;60570;50.848;6.776;2023-04-15T02:02:12;1051.95;;;972.42;;
72547;SDS011;60570;50.848;6.776;2023-04-15T02:03:13;1050.37;;;972.57;;
72547;SDS011;60570;50.848;6.776;2023-04-15T02:04:14;1051.95;;;972.67;;
72547;SDS011;60570;50.848;6.776;2023-04-15T02:05:16;1050.47;;;971.33;;
72547;SDS011;60570;50.848;6.776;2023-04-15T02:06:18;1049.80;;;970.78;;
72547;SDS011;60570;50.848;6.776;2023-04-15T02:07:18;1050.77;;;971.63;;
72547;SDS011;60570;50.848;6.776;2023-04-15T02:08:21;1054.40;;;974.95;;
72547;SDS011;60570;50.848;6.776;2023-04-15T02:09:21;1054.47;;;976.13;;
72547;SDS011;60570;50.848;6.776;2023-04-15T02:10:23;1049.50;;;970.28;;
72547;SDS011;60570;50.848;6.776;2023-04-15T02:11:24;1049.13;;;970.17;;
72547;SDS011;60570;50.848;6.776;2023-04-15T02:12:27;1053.18;;;973.50;;
72547;SDS011;60570;50.848;6.776;2023-04-15T02:13:27;1054.10;;;974.63;;
72547;SDS011;60570;50.848;6.776;2023-04-15T02:14:29;1051.70;;;972.47;;
72547;SDS011;60570;50.848;6.776;2023-04-15T02:15:30;1048.75;;;969.75;;
72547;SDS011;60570;50.848;6.776;2023-04-15T02:16:32;1052.80;;;973.42;;
72547;SDS011;60570;50.848;6.776;2023-04-15T02:17:33;1050.80;;;971.43;;
72547;SDS011;60570;50.848;6.776;2023-04-15T02:18:35;1049.50;;;970.42;;
72547;SDS011;60570;50.848;6.776;2023-04-15T02:19:36;1050.83;;;972.50;;
72547;SDS011;60570;50.848;6.776;2023-04-15T02:20:38;1050.03;;;970.95;;
72547;SDS011;60570;50.848;6.776;2023-04-15T02:21:39;1050.20;;;971.07;;
72547;SDS011;60570;50.848;6.776;2023-04-15T02:23:41;1046.53;;;970.30;;
72547;SDS011;60570;50.848;6.776;2023-04-15T02:25:44;1043.90;;;967.43;;
72547;SDS011;60570;50.848;6.776;2023-04-15T02:26:46;1047.35;;;970.75;;
72547;SDS011;60570;50.848;6.776;2023-04-15T02:27:48;1043.77;;;966.37;;
72547;SDS011;60570;50.848;6.776;2023-04-15T02:28:50;1050.30;;;971.90;;
72547;SDS011;60570;50.848;6.776;2023-04-15T02:29:50;1046.40;;;968.47;;
72547;SDS011;60570;50.848;6.776;2023-04-15T02:30:52;1047.78;;;969.40;;
72547;SDS011;60570;50.848;6.776;2023-04-15T02:31:55;1048.10;;;969.60;;
72547;SDS011;60570;50.848;6.776;2023-04-15T02:32:57;1048.30;;;969.97;;
72547;SDS011;60570;50.848;6.776;2023-04-15T02:33:57;1050.10;;;971.50;;
72547;SDS011;60570;50.848;6.776;2023-04-15T02:35:01;1047.35;;;968.97;;
72547;SDS011;60570;50.848;6.776;2023-04-15T02:36:03;1047.70;;;969.17;;
72547;SDS011;60570;50.848;6.776;2023-04-15T02:37:05;1053.22;;;974.80;;
72547;SDS011;60570;50.848;6.776;2023-04-15T02:38:06;1048.70;;;969.93;;
72547;SDS011;60570;50.848;6.776;2023-04-15T02:39:07;1047.38;;;968.70;;
72547;SDS011;60570;50.848;6.776;2023-04-15T02:40:13;1047.50;;;968.78;;
72547;SDS011;60570;50.848;6.776;2023-04-15T02:42:15;1040.00;;;963.37;;
72547;SDS011;60570;50.848;6.776;2023-04-15T02:44:19;1044.05;;;967.53;;
72547;SDS011;60570;50.848;6.776;2023-04-15T02:45:22;1044.80;;;967.67;;
72547;SDS011;60570;50.848;6.776;2023-04-15T02:46:26;1046.47;;;968.50;;
72547;SDS011;60570;50.848;6.776;2023-04-15T02:47:27;1047.27;;;969.37;;
72547;SDS011;60570;50.848;6.776;2023-04-15T02:48:28;1047.22;;;968.92;;
72547;SDS011;60570;50.848;6.776;2023-04-15T02:49:29;1044.50;;;966.40;;
72547;SDS011;60570;50.848;6.776;2023-04-15T02:50:31;1048.28;;;969.97;;
72547;SDS011;60570;50.848;6.776;2023-04-15T02:51:32;1047.77;;;969.33;;
72547;SDS011;60570;50.848;6.776;2023-04-15T02:52:33;1048.30;;;969.83;;
72547;SDS011;60570;50.848;6.776;2023-04-15T02:53:34;1046.00;;;967.53;;
72547;SDS011;60570;50.848;6.776;2023-04-15T02:54:36;1049.60;;;970.92;;
72547;SDS011;60570;50.848;6.776;2023-04-15T02:55:36;1048.83;;;970.03;;
72547;SDS011;60570;50.848;6.776;2023-04-15T02:56:38;1046.22;;;967.83;;
72547;SDS011;60570;50.848;6.776;2023-04-15T02:57:39;1048.43;;;969.67;;
72547;SDS011;60570;50.848;6.776;2023-04-15T02:59:43;1046.88;;;970.63;;
72547;SDS011;60570;50.848;6.776;2023-04-15T03:00:44;1046.45;;;968.67;;
72547;SDS011;60570;50.848;6.776;2023-04-15T03:01:46;1050.35;;;973.22;;
72547;SDS011;60570;50.848;6.776;2023-04-15T03:02:46;1050.67;;;972.40;;
72547;SDS011;60570;50.848;6.776;2023-04-15T03:03:51;1047.57;;;969.25;;
72547;SDS011;60570;50.848;6.776;2023-04-15T03:04:51;1043.93;;;965.83;;
72547;SDS011;60570;50.848;6.776;2023-04-15T03:05:54;1047.45;;;968.88;;
72547;SDS011;60570;50.848;6.776;2023-04-15T03:06:55;1047.43;;;969.00;;
72547;SDS011;60570;50.848;6.776;2023-04-15T03:07:57;1047.13;;;968.65;;
72547;SDS011;60570;50.848;6.776;2023-04-15T03:08:58;1049.03;;;970.70;;
72547;SDS011;60570;50.848;6.776;2023-04-15T03:10:01;1048.30;;;969.70;;
72547;SDS011;60570;50.848;6.776;2023-04-15T03:11:02;1048.03;;;970.90;;
72547;SDS011;60570;50.848;6.776;2023-04-15T03:12:04;1050.72;;;972.13;;
72547;SDS011;60570;50.848;6.776;2023-04-15T03:13:05;1049.63;;;971.15;;
72547;SDS011;60570;50.848;6.776;2023-04-15T03:14:08;1050.00;;;971.40;;
72547;SDS011;60570;50.848;6.776;2023-04-15T03:15:09;1047.50;;;968.92;;
72547;SDS011;60570;50.848;6.776;2023-04-15T03:16:11;1047.88;;;969.67;;
72547;SDS011;60570;50.848;6.776;2023-04-15T03:17:12;1047.10;;;969.00;;
72547;SDS011;60570;50.848;6.776;2023-04-15T03:18:13;1047.40;;;969.10;;
72547;SDS011;60570;50.848;6.776;2023-04-15T03:19:14;1051.70;;;973.03;;
72547;SDS011;60570;50.848;6.776;2023-04-15T03:20:16;1048.45;;;970.30;;
72547;SDS011;60570;50.848;6.776;2023-04-15T03:21:17;1045.40;;;967.43;;
72547;SDS011;60570;50.848;6.776;2023-04-15T03:22:19;1047.90;;;969.42;;
72547;SDS011;60570;50.848;6.776;2023-04-15T03:23:20;1048.97;;;970.73;;
72547;SDS011;60570;50.848;6.776;2023-04-15T03:24:21;1048.88;;;970.33;;
72547;SDS011;60570;50.848;6.776;2023-04-15T03:25:22;1044.17;;;966.13;;
72547;SDS011;60570;50.848;6.776;2023-04-15T03:26:25;1049.53;;;970.95;;
72547;SDS011;60570;50.848;6.776;2023-04-15T03:27:27;1049.28;;;970.70;;
72547;SDS011;60570;50.848;6.776;2023-04-15T03:28:29;1047.70;;;969.33;;
72547;SDS011;60570;50.848;6.776;2023-04-15T03:29:31;1048.18;;;969.97;;
72547;SDS011;60570;50.848;6.776;2023-04-15T03:30:33;1052.43;;;974.63;;
72547;SDS011;60570;50.848;6.776;2023-04-15T03:31:33;1051.47;;;972.93;;
72547;SDS011;60570;50.848;6.776;2023-04-15T03:32:35;1047.07;;;969.00;;
72547;SDS011;60570;50.848;6.776;2023-04-15T03:33:36;1046.83;;;968.70;;
72547;SDS011;60570;50.848;6.776;2023-04-15T03:34:37;1048.93;;;970.78;;
72547;SDS011;60570;50.848;6.776;2023-04-15T03:35:38;1045.13;;;967.13;;
72547;SDS011;60570;50.848;6.776;2023-04-15T03:36:40;1048.25;;;969.83;;
72547;SDS011;60570;50.848;6.776;2023-04-15T03:37:41;1046.75;;;968.72;;
72547;SDS011;60570;50.848;6.776;2023-04-15T03:38:42;1045.00;;;967.23;;
72547;SDS011;60570;50.848;6.776;2023-04-15T03:39:44;1048.03;;;969.85;;
72547;SDS011;60570;50.848;6.776;2023-04-15T03:40:45;1049.65;;;971.30;;
72547;SDS011;60570;50.848;6.776;2023-04-15T03:41:47;1048.15;;;969.80;;
72547;SDS011;60570;50.848;6.776;2023-04-15T03:42:48;1050.63;;;972.70;;
72547;SDS011;60570;50.848;6.776;2023-04-15T03:44:52;1042.70;;;966.15;;
72547;SDS011;60570;50.848;6.776;2023-04-15T03:45:54;1044.85;;;967.95;;
72547;SDS011;60570;50.848;6.776;2023-04-15T03:46:55;1044.90;;;967.47;;
72547;SDS011;60570;50.848;6.776;2023-04-15T03:47:56;1044.13;;;966.78;;
72547;SDS011;60570;50.848;6.776;2023-04-15T03:48:57;1046.43;;;968.70;;
72547;SDS011;60570;50.848;6.776;2023-04-15T03:49:59;1045.60;;;967.70;;
72547;SDS011;60570;50.848;6.776;2023-04-15T03:50:59;1045.97;;;968.27;;
72547;SDS011;60570;50.848;6.776;2023-04-15T03:52:01;1047.13;;;969.35;;
72547;SDS011;60570;50.848;6.776;2023-04-15T03:53:02;1043.03;;;965.43;;
72547;SDS011;60570;50.848;6.776;2023-04-15T03:54:03;1050.63;;;972.78;;
72547;SDS011;60570;50.848;6.776;2023-04-15T03:55:05;1045.60;;;967.60;;
72547;SDS011;60570;50.848;6.776;2023-04-15T03:56:07;1048.47;;;969.85;;
72547;SDS011;60570;50.848;6.776;2023-04-15T03:57:08;1042.33;;;964.80;;
72547;SDS011;60570;50.848;6.776;2023-04-15T03:58:10;1044.68;;;966.75;;
72547;SDS011;60570;50.848;6.776;2023-04-15T04:00:14;1041.97;;;965.80;;
72547;SDS011;60570;50.848;6.776;2023-04-15T04:01:15;1044.68;;;967.60;;
72547;SDS011;60570;50.848;6.776;2023-04-15T04:02:17;1041.13;;;964.03;;
72547;SDS011;60570;50.848;6.776;2023-04-15T04:03:18;1041.37;;;964.07;;
72547;SDS011;60570;50.848;6.776;2023-04-15T04:04:19;1040.82;;;963.45;;
72547;SDS011;60570;50.848;6.776;2023-04-15T04:05:20;1045.37;;;967.63;;
72547;SDS011;60570;50.848;6.776;2023-04-15T04:06:22;1043.68;;;965.92;;
72547;SDS011;60570;50.848;6.776;2023-04-15T04:07:23;1039.40;;;962.27;;
72547;SDS011;60570;50.848;6.776;2023-04-15T04:08:24;1049.45;;;972.10;;
72547;SDS011;60570;50.848;6.776;2023-04-15T04:09:26;1044.30;;;966.60;;
72547;SDS011;60570;50.848;6.776;2023-04-15T04:11:28;1040.00;;;963.97;;
72547;SDS011;60570;50.848;6.776;2023-04-15T04:12:30;1040.32;;;963.60;;
72547;SDS011;60570;50.848;6.776;2023-04-15T04:13:31;1044.57;;;968.33;;
72547;SDS011;60570;50.848;6.776;2023-04-15T04:14:33;1045.28;;;968.72;;
72547;SDS011;60570;50.848;6.776;2023-04-15T04:15:35;1042.70;;;965.23;;
72547;SDS011;60570;50.848;6.776;2023-04-15T04:16:37;1046.05;;;968.35;;
72547;SDS011;60570;50.848;6.776;2023-04-15T04:17:37;1044.53;;;966.80;;
72547;SDS011;60570;50.848;6.776;2023-04-15T04:18:39;1045.15;;;967.38;;
72547;SDS011;60570;50.848;6.776;2023-04-15T04:19:40;1042.40;;;964.80;;
72547;SDS011;60570;50.848;6.776;2023-04-15T04:20:41;1046.28;;;968.58;;
72547;SDS011;60570;50.848;6.776;2023-04-15T04:21:42;1047.17;;;970.03;;
72547;SDS011;60570;50.848;6.776;2023-04-15T04:22:44;1047.15;;;969.10;;
72547;SDS011;60570;50.848;6.776;2023-04-15T04:23:44;1045.40;;;968.57;;
72547;SDS011;60570;50.848;6.776;2023-04-15T04:24:46;1046.43;;;968.33;;
72547;SDS011;60570;50.848;6.776;2023-04-15T04:25:47;1045.53;;;967.67;;
72547;SDS011;60570;50.848;6.776;2023-04-15T04:26:48;1047.57;;;969.45;;
72547;SDS011;60570;50.848;6.776;2023-04-15T04:27:49;1043.30;;;965.50;;
72547;SDS011;60570;50.848;6.776;2023-04-15T04:28:51;1044.78;;;967.15;;
72547;SDS011;60570;50.848;6.776;2023-04-15T04:29:52;1042.87;;;965.30;;
72547;SDS011;60570;50.848;6.776;2023-04-15T04:30:55;1047.18;;;968.85;;
72547;SDS011;60570;50.848;6.776;2023-04-15T04:31:55;1051.13;;;973.22;;
72547;SDS011;60570;50.848;6.776;2023-04-15T04:32:57;1047.65;;;970.53;;
72547;SDS011;60570;50.848;6.776;2023-04-15T04:33:58;1046.33;;;969.73;;
72547;SDS011;60570;50.848;6.776;2023-04-15T04:35:00;1048.72;;;971.58;;
72547;SDS011;60570;50.848;6.776;2023-04-15T04:36:00;1044.27;;;966.80;;
72547;SDS011;60570;50.848;6.776;2023-04-15T04:37:02;1045.90;;;968.03;;
72547;SDS011;60570;50.848;6.776;2023-04-15T04:38:03;1045.33;;;967.57;;
72547;SDS011;60570;50.848;6.776;2023-04-15T04:39:05;1048.22;;;970.25;;
72547;SDS011;60570;50.848;6.776;2023-04-15T04:40:06;1045.03;;;967.43;;
72547;SDS011;60570;50.848;6.776;2023-04-15T04:41:08;1042.35;;;965.00;;
72547;SDS011;60570;50.848;6.776;2023-04-15T04:42:09;1042.43;;;965.07;;
72547;SDS011;60570;50.848;6.776;2023-04-15T04:43:11;1045.10;;;967.70;;
72547;SDS011;60570;50.848;6.776;2023-04-15T04:44:12;1047.07;;;968.90;;
72547;SDS011;60570;50.848;6.776;2023-04-15T04:45:14;1045.75;;;968.05;;
72547;SDS011;60570;50.848;6.776;2023-04-15T04:46:16;1043.27;;;965.80;;
72547;SDS011;60570;50.848;6.776;2023-04-15T04:47:17;1046.72;;;968.75;;
72547;SDS011;60570;50.848;6.776;2023-04-15T04:48:18;1043.37;;;965.93;;
72547;SDS011;60570;50.848;6.776;2023-04-15T04:49:20;1047.68;;;969.97;;
72547;SDS011;60570;50.848;6.776;2023-04-15T04:50:20;1042.47;;;965.30;;
72547;SDS011;60570;50.848;6.776;2023-04-15T04:51:22;1046.75;;;968.95;;
72547;SDS011;60570;50.848;6.776;2023-04-15T04:52:23;1046.13;;;968.60;;
72547;SDS011;60570;50.848;6.776;2023-04-15T04:54:25;1038.17;;;962.60;;
72547;SDS011;60570;50.848;6.776;2023-04-15T04:56:28;1043.05;;;968.38;;
72547;SDS011;60570;50.848;6.776;2023-04-15T04:57:30;1038.30;;;962.65;;
72547;SDS011;60570;50.848;6.776;2023-04-15T04:58:30;1045.63;;;969.07;;
72547;SDS011;60570;50.848;6.776;2023-04-15T04:59:32;1043.13;;;966.10;;
72547;SDS011;60570;50.848;6.776;2023-04-15T05:00:33;1040.93;;;964.27;;
72547;SDS011;60570;50.848;6.776;2023-04-15T05:01:37;1042.05;;;965.03;;
72547;SDS011;60570;50.848;6.776;2023-04-15T05:02:38;1050.43;;;973.83;;
72547;SDS011;60570;50.848;6.776;2023-04-15T05:03:41;1044.03;;;966.85;;
72547;SDS011;60570;50.848;6.776;2023-04-15T05:04:42;1045.40;;;968.90;;
72547;SDS011;60570;50.848;6.776;2023-04-15T05:05:43;1044.50;;;967.13;;
72547;SDS011;60570;50.848;6.776;2023-04-15T05:06:45;1050.88;;;973.60;;
72547;SDS011;60570;50.848;6.776;2023-04-15T05:07:46;1048.88;;;971.70;;
72547;SDS011;60570;50.848;6.776;2023-04-15T05:08:49;1040.57;;;963.47;;
72547;SDS011;60570;50.848;6.776;2023-04-15T05:09:51;1047.18;;;969.40;;
72547;SDS011;60570;50.848;6.776;2023-04-15T05:10:51;1042.03;;;964.93;;
72547;SDS011;60570;50.848;6.776;2023-04-15T05:11:53;1047.15;;;969.35;;
72547;SDS011;60570;50.848;6.776;2023-04-15T05:12:53;1047.53;;;969.93;;
72547;SDS011;60570;50.848;6.776;2023-04-15T05:13:55;1045.65;;;968.17;;
72547;SDS011;60570;50.848;6.776;2023-04-15T05:14:57;1045.80;;;968.25;;
72547;SDS011;60570;50.848;6.776;2023-04-15T05:15:58;1043.75;;;966.30;;
72547;SDS011;60570;50.848;6.776;2023-04-15T05:17:00;1041.53;;;964.20;;
72547;SDS011;60570;50.848;6.776;2023-04-15T05:18:02;1046.47;;;968.88;;
72547;SDS011;60570;50.848;6.776;2023-04-15T05:19:04;1046.18;;;969.50;;
72547;SDS011;60570;50.848;6.776;2023-04-15T05:20:06;1045.57;;;968.08;;
72547;SDS011;60570;50.848;6.776;2023-04-15T05:21:09;1048.90;;;971.80;;
72547;SDS011;60570;50.848;6.776;2023-04-15T05:22:11;1049.30;;;972.20;;
72547;SDS011;60570;50.848;6.776;2023-04-15T05:23:11;1042.63;;;965.37;;
72547;SDS011;60570;50.848;6.776;2023-04-15T05:24:13;1048.35;;;970.70;;
72547;SDS011;60570;50.848;6.776;2023-04-15T05:25:14;1042.30;;;964.87;;
72547;SDS011;60570;50.848;6.776;2023-04-15T05:26:16;1044.32;;;966.92;;
72547;SDS011;60570;50.848;6.776;2023-04-15T05:27:17;1041.80;;;964.60;;
72547;SDS011;60570;50.848;6.776;2023-04-15T05:28:19;1045.93;;;967.95;;
72547;SDS011;60570;50.848;6.776;2023-04-15T05:29:20;1046.07;;;968.20;;
72547;SDS011;60570;50.848;6.776;2023-04-15T05:31:22;1043.57;;;968.67;;
72547;SDS011;60570;50.848;6.776;2023-04-15T05:32:26;1045.80;;;969.00;;
72547;SDS011;60570;50.848;6.776;2023-04-15T05:33:26;1046.00;;;968.90;;
72547;SDS011;60570;50.848;6.776;2023-04-15T05:34:28;1042.22;;;965.45;;
72547;SDS011;60570;50.848;6.776;2023-04-15T05:35:29;1042.60;;;965.73;;
72547;SDS011;60570;50.848;6.776;2023-04-15T05:36:31;1041.70;;;964.72;;
72547;SDS011;60570;50.848;6.776;2023-04-15T05:37:32;1043.97;;;967.00;;
72547;SDS011;60570;50.848;6.776;2023-04-15T05:38:33;1045.13;;;967.63;;
72547;SDS011;60570;50.848;6.776;2023-04-15T05:39:34;1042.85;;;965.55;;
72547;SDS011;60570;50.848;6.776;2023-04-15T05:40:36;1043.32;;;965.92;;
72547;SDS011;60570;50.848;6.776;2023-04-15T05:41:37;1040.83;;;964.03;;
72547;SDS011;60570;50.848;6.776;2023-04-15T05:42:38;1042.90;;;965.80;;
72547;SDS011;60570;50.848;6.776;2023-04-15T05:43:39;1042.90;;;965.57;;
72547;SDS011;60570;50.848;6.776;2023-04-15T05:44:41;1045.57;;;968.08;;
72547;SDS011;60570;50.848;6.776;2023-04-15T05:45:41;1044.50;;;967.10;;
72547;SDS011;60570;50.848;6.776;2023-04-15T05:46:43;1041.85;;;964.58;;
72547;SDS011;60570;50.848;6.776;2023-04-15T05:47:45;1038.50;;;961.97;;
72547;SDS011;60570;50.848;6.776;2023-04-15T05:48:49;1045.50;;;968.28;;
72547;SDS011;60570;50.848;6.776;2023-04-15T05:50:51;1042.27;;;967.57;;
72547;SDS011;60570;50.848;6.776;2023-04-15T05:52:53;1037.53;;;963.73;;
72547;SDS011;60570;50.848;6.776;2023-04-15T05:53:56;1039.93;;;964.33;;
72547;SDS011;60570;50.848;6.776;2023-04-15T05:54:56;1041.13;;;965.07;;
72547;SDS011;60570;50.848;6.776;2023-04-15T05:55:58;1044.47;;;969.00;;
72547;SDS011;60570;50.848;6.776;2023-04-15T05:56:59;1038.60;;;962.47;;
72547;SDS011;60570;50.848;6.776;2023-04-15T05:58:01;1041.28;;;964.67;;
72547;SDS011;60570;50.848;6.776;2023-04-15T05:59:02;1045.13;;;969.13;;
72547;SDS011;60570;50.848;6.776;2023-04-15T06:00:05;1040.13;;;963.67;;
72547;SDS011;60570;50.848;6.776;2023-04-15T06:01:08;1039.93;;;963.38;;
72547;SDS011;60570;50.848;6.776;2023-04-15T06:02:10;1044.40;;;967.47;;